Eldorado, Iowa
Current Conditions -  °F | °C
As of 9:55 AM on Friday 24 Oct 2014 (Local Time) from KDEH Reporting Station
Haze Haze  
Wind Chill: 54°   Ceiling: 300
Heat Index: 54°   Visibility: 1.2mi
Dew Point: 54°   Wind: 8mph
Humidity: 100%   Direction: 150°SSE
Pressure: 29.97"   Gusts: 14mph
Location:  43.0026°N, 91.7836°W
Report Text: KDEH 241455Z AUTO 15007G12KT 1 1/4SM BR OVC003 12/12 A2997 RMK AO2
Loading
Personal Weather Stations






























Interactive Weather Map
Tropical Storm Tracking
New forecast layout! Learn more

10-Day Weather Forecast

Advertisements
Track Severe Weather on mobile